• Join FlightAware (Why Join?)
  • Login
  • US Flag 
04:27AM EDT


 

Airport Tracker/Info


-or-


 

Live Flight TrackerFlight Track Log ✈ UAL1058 ✈ 11-Jul-2013 ✈ KLGA - KIAH

Flight Track Log - Related Links

Times and Time Zones

All times are in EDT time to prevent confusion due to time zone crossing. See the UAL1058 flight status page for this flight to view local times or setup timezone preferences in your user account.

Time Position Orientation Groundspeed Altitude Reporting Facility
EDT Latitude Longitude Course Direction KTS MPH feet Rate Location/Type
09:59AM 40.8000 -73.9000 252° West 160 184 1,400  Level New York TRACON
10:00AM 40.8500 -73.9500 323° Northwest 227 261 4,000 3,000 Climbing New York TRACON
10:01AM 40.8500 -74.0333 270° West 251 289 7,400 3,300 Climbing New York TRACON
10:02AM 40.7426 -74.2786 265° West  Level FlightAware Approximate
10:02AM 40.8333 -74.1333 258° West 269 310 10,700  Level New York TRACON
10:03AM 40.7333 -74.4176 264° West  Level FlightAware Approximate
10:03AM 40.8167 -74.2333 258° West 321 369 12,600  Level New York TRACON
10:04AM 40.7226 -74.5565 264° West  Level FlightAware Approximate
10:04AM 40.8000 -74.3500 259° West 361 415 15,200  Level New York TRACON
10:05AM 40.7058 -74.6934 252° West  Level FlightAware Approximate
10:05AM 40.7833 -74.4833 261° West 350 403 17,100  Level New York TRACON
10:07AM 40.7389 -74.7369 257° West 331 381 17,000 -60 Descending New York Center
10:08AM 40.7203 -74.8536 258° West 331 381 17,000 900 Level New York Center
10:09AM 40.7042 -74.9511 258° West 331 381 18,800 2,040 Climbing New York Center
10:10AM 40.6786 -75.0836 256° West 336 387 21,100 1,680 Climbing New York Center
10:11AM 40.6306 -75.1983 241° Southwest 343 395 22,300 1,380 Climbing New York Center
10:12AM 40.5717 -75.3228 238° Southwest 374 430 24,000 1,800 Climbing New York Center
10:13AM 40.5144 -75.4528 240° Southwest 397 457 25,900 1,740 Climbing New York Center
10:14AM 40.4553 -75.5769 238° Southwest 403 464 27,500 1,380 Climbing New York Center
10:15AM 40.3958 -75.7092 239° Southwest 415 478 28,800 1,380 Climbing New York Center
10:16AM 40.3361 -75.8411 239° Southwest 421 484 30,400 1,620 Climbing New York Center
10:17AM 40.2675 -75.9747 236° Southwest 432 497 32,100 1,620 Climbing New York Center
10:18AM 40.2078 -76.1033 239° Southwest 432 497 33,600 1,560 Climbing New York Center
10:19AM 40.1692 -76.2608 252° West 426 490 35,300 1,200 Climbing New York Center
10:22AM 40.0739 -76.6081 250° West 409 471 38,000 720 Climbing Washington Center
10:23AM 40.0394 -76.7431 252° West 403 464 38,000  Level Washington Center
10:24AM 40.0114 -76.8511 251° West 403 464 38,000  Level Washington Center
10:25AM 39.9700 -76.9992 250° West 403 464 38,000  Level Washington Center
10:26AM 39.9331 -77.1364 251° West 410 472 38,000  Level Washington Center
10:27AM 39.8958 -77.2736 251° West 410 472 38,000  Level Washington Center
10:28AM 39.8606 -77.4078 251° West 405 466 38,000  Level Washington Center
10:29AM 39.8228 -77.5447 250° West 405 466 38,000  Level Washington Center
10:30AM 39.7853 -77.6814 250° West 405 466 38,000  Level Washington Center
10:31AM 39.7431 -77.8286 250° West 405 466 38,000  Level Washington Center
10:32AM 39.7069 -77.9650 251° West 400 460 38,000  Level Washington Center
10:33AM 39.6689 -78.0986 250° West 400 460 38,000  Level Washington Center
10:34AM 39.6306 -78.2319 250° West 400 460 38,000  Level Washington Center
10:35AM 39.5922 -78.3681 250° West 400 460 38,000  Level Washington Center
10:36AM 39.5556 -78.5039 251° West 400 460 38,000  Level Washington Center
10:37AM 39.5169 -78.6367 249° West 400 460 38,000  Level Washington Center
10:38AM 39.4781 -78.7669 249° West 400 460 38,000  Level Washington Center
10:39AM 39.4411 -78.9022 251° West 400 460 38,000  Level Washington Center
10:40AM 39.4019 -79.0347 249° West 400 460 38,000  Level Washington Center
10:41AM 39.3628 -79.1672 249° West 400 460 38,000  Level Washington Center
10:42AM 39.3319 -79.2864 252° West 400 460 38,000  Level Washington Center
10:43AM 39.2925 -79.4158 249° West 400 460 38,000  Level Washington Center
10:44AM 39.2547 -79.5481 250° West 400 460 38,000  Level Washington Center
10:45AM 39.2150 -79.6797 249° West 400 460 38,000  Level Washington Center
10:46AM 39.1750 -79.8142 249° West 400 460 38,000  Level Washington Center
10:48AM 39.0883 -80.0872 248° West 393 452 38,000  Level Indianapolis Center
10:49AM 39.0475 -80.2175 248° West 393 452 38,000  Level Indianapolis Center
10:50AM 39.0086 -80.3478 249° West 391 450 38,000  Level Indianapolis Center
10:51AM 38.9686 -80.4778 248° West 390 449 38,000  Level Indianapolis Center
10:52AM 38.9281 -80.6072 248° West 391 450 38,000  Level Indianapolis Center
10:53AM 38.8883 -80.7361 248° West 390 449 38,000  Level Indianapolis Center
10:54AM 38.8400 -80.8917 248° West 390 449 38,000  Level Indianapolis Center
10:55AM 38.7994 -81.0214 248° West 392 451 38,000  Level Indianapolis Center
10:56AM 38.7578 -81.1525 248° West 397 457 38,000  Level Indianapolis Center
10:57AM 38.7167 -81.2831 248° West 396 456 38,000  Level Indianapolis Center
10:58AM 38.6700 -81.4317 248° West 399 459 38,000  Level Indianapolis Center
10:59AM 38.6283 -81.5647 248° West 402 463 38,000  Level Indianapolis Center
11:00AM 38.5872 -81.6914 247° West 405 466 38,000  Level Indianapolis Center
11:01AM 38.5447 -81.8244 248° West 405 466 38,000  Level Indianapolis Center
11:02AM 38.5022 -81.9567 248° West 403 464 38,000  Level Indianapolis Center
11:03AM 38.4581 -82.0900 247° West 406 467 38,000  Level Indianapolis Center
11:04AM 38.4064 -82.2489 248° West 407 468 38,000  Level Indianapolis Center
11:05AM 38.3633 -82.3819 248° West 406 467 38,000  Level Indianapolis Center
11:06AM 38.3189 -82.5164 247° West 406 467 38,000  Level Indianapolis Center
11:07AM 38.2747 -82.6475 247° West 404 465 38,000  Level Indianapolis Center
11:09AM 38.2306 -82.7792 247° West 404 465 38,000  Level Indianapolis Center
11:10AM 38.1872 -82.9103 247° West 404 465 38,000  Level Indianapolis Center
11:11AM 38.1358 -83.0622 247° West 403 464 38,000  Level Indianapolis Center
11:12AM 38.0919 -83.1922 247° West 402 463 38,000  Level Indianapolis Center
11:13AM 38.0486 -83.3222 247° West 402 463 38,000  Level Indianapolis Center
11:14AM 38.0036 -83.4517 246° West 400 460 38,000  Level Indianapolis Center
11:15AM 37.9589 -83.5811 246° West 402 463 38,000  Level Indianapolis Center
11:16AM 37.9144 -83.7106 247° West 400 460 38,000  Level Indianapolis Center
11:17AM 37.8628 -83.8608 247° West 401 461 38,000  Level Indianapolis Center
11:18AM 37.8178 -83.9869 246° West 398 458 38,000  Level Indianapolis Center
11:19AM 37.7742 -84.1158 247° West 400 460 38,000  Level Indianapolis Center
11:20AM 37.7283 -84.2456 246° West 403 464 38,000  Level Indianapolis Center
11:21AM 37.6825 -84.3744 246° West 403 464 38,000  Level Indianapolis Center
11:22AM 37.6381 -84.5044 247° West 402 463 38,000  Level Indianapolis Center
11:23AM 37.5828 -84.6578 246° West 411 473 38,000  Level Indianapolis Center
11:24AM 37.5364 -84.7886 246° West 411 473 38,000  Level Indianapolis Center
11:25AM 37.4883 -84.9206 245° Southwest 415 478 38,000  Level Indianapolis Center
11:26AM 37.4406 -85.0514 245° Southwest 412 474 38,000  Level Indianapolis Center
11:27AM 37.3939 -85.1831 246° West 414 476 38,000  Level Indianapolis Center
11:28AM 37.3467 -85.3147 246° West 414 476 38,000  Level Indianapolis Center
11:29AM 37.2900 -85.4683 245° Southwest 415 478 38,000  Level Indianapolis Center
11:30AM 37.2428 -85.5997 246° West 417 480 38,000  Level Indianapolis Center
11:31AM 37.1933 -85.7342 245° Southwest 420 483 38,000  Level Indianapolis Center
11:32AM 37.1442 -85.8667 245° Southwest 418 481 38,000 60 Level Indianapolis Center
11:33AM 37.0944 -85.9992 245° Southwest 418 481 38,200 480 Climbing Indianapolis Center
11:34AM 37.0453 -86.1325 245° Southwest 419 482 39,000 660 Climbing Indianapolis Center
11:35AM 36.9947 -86.2672 245° Southwest 422 486 39,600 480 Climbing Indianapolis Center
11:36AM 36.9431 -86.4036 245° Southwest 429 494 40,000 180 Climbing Indianapolis Center
11:37AM 36.8944 -86.4864 234° Southwest 430 495 40,000  Level Memphis Center
11:38AM 36.8039 -86.5919 223° Southwest 435 501 40,000  Level Memphis Center
11:39AM 36.7153 -86.6969 224° Southwest 440 506 40,000  Level Memphis Center
11:40AM 36.6267 -86.7992 223° Southwest 440 506 40,000  Level Memphis Center
11:41AM 36.5378 -86.9064 224° Southwest 440 506 40,000  Level Memphis Center
11:42AM 36.4472 -87.0186 225° Southwest 451 519 40,000  Level Memphis Center
11:43AM 36.3519 -87.1231 221° Southwest 460 529 40,000  Level Memphis Center
11:44AM 36.2586 -87.2247 221° Southwest 456 525 40,000  Level Memphis Center
11:45AM 36.1653 -87.3286 222° Southwest 451 519 40,000  Level Memphis Center
11:46AM 36.0719 -87.4347 223° Southwest 451 519 40,000  Level Memphis Center
11:47AM 35.9806 -87.5381 222° Southwest 457 526 40,000  Level Memphis Center
11:48AM 35.8789 -87.6517 222° Southwest 451 519 40,000  Level Memphis Center
11:49AM 35.7831 -87.7572 222° Southwest 457 526 40,000  Level Memphis Center
11:50AM 35.6892 -87.8622 222° Southwest 458 527 40,000  Level Memphis Center
11:51AM 35.5975 -87.9672 223° Southwest 458 527 40,000  Level Memphis Center
11:52AM 35.5056 -88.0694 222° Southwest 458 527 40,000  Level Memphis Center
11:53AM 35.4178 -88.1686 223° Southwest 453 521 40,000  Level Memphis Center
11:54AM 35.3339 -88.2700 225° Southwest 453 521 40,000  Level Memphis Center
11:55AM 35.2397 -88.3742 222° Southwest 458 527 40,000  Level Memphis Center
11:56AM 35.1475 -88.4778 223° Southwest 458 527 40,000  Level Memphis Center
11:57AM 35.0425 -88.5842 220° Southwest 458 527 40,000  Level Memphis Center
11:58AM 34.9461 -88.6900 222° Southwest 458 527 40,000  Level Memphis Center
11:59AM 34.8492 -88.7933 221° Southwest 463 533 40,000  Level Memphis Center
12:00PM 34.7525 -88.9011 223° Southwest 468 539 40,000  Level Memphis Center
12:01PM 34.6556 -89.0039 221° Southwest 462 532 40,000  Level Memphis Center
12:02PM 34.5586 -89.1089 222° Southwest 467 537 40,000  Level Memphis Center
12:03PM 34.4719 -89.2008 221° Southwest 467 537 40,000  Level Memphis Center
12:04PM 34.3747 -89.3028 221° Southwest 467 537 40,000  Level Memphis Center
12:05PM 34.2817 -89.4069 223° Southwest 467 537 40,000  Level Memphis Center
12:06PM 34.1844 -89.5111 222° Southwest 467 537 40,000  Level Memphis Center
12:07PM 34.0828 -89.6197 222° Southwest 460 529 40,000  Level Memphis Center
12:08PM 34.0061 -89.7031 222° Southwest 460 529 40,000  Level Memphis Center
12:09PM 33.8919 -89.8242 221° Southwest 460 529 40,000  Level Memphis Center
12:10PM 33.8172 -89.9122 224° Southwest 450 518 40,000  Level Memphis Center
12:11PM 33.7236 -90.0100 221° Southwest 450 518 40,000  Level Memphis Center
12:12PM 33.6278 -90.1078 220° Southwest 450 518 40,000  Level Memphis Center
12:13PM 33.5361 -90.2028 221° Southwest 445 512 40,000  Level Memphis Center
12:14PM 33.4422 -90.3025 222° Southwest 445 512 40,000  Level Memphis Center
12:15PM 33.3400 -90.4094 221° Southwest 440 506 40,000  Level Memphis Center
12:16PM 33.2481 -90.5064 221° Southwest 440 506 40,000  Level Memphis Center
12:17PM 33.1539 -90.6006 220° Southwest 440 506 40,000  Level Memphis Center
12:18PM 33.0578 -90.6992 221° Southwest 445 512 40,000  Level Memphis Center
12:19PM 32.9633 -90.7956 221° Southwest 445 512 40,000  Level Memphis Center
12:20PM 32.8692 -90.8939 221° Southwest 450 518 40,000  Level Memphis Center
12:21PM 32.7728 -90.9922 221° Southwest 455 524 40,000  Level Memphis Center
12:22PM 32.6739 -91.0903 220° Southwest 460 529 40,000  Level Memphis Center
12:23PM 32.5772 -91.1881 220° Southwest 460 529 40,000  Level Memphis Center
12:25PM 32.3444 -91.4242 221° Southwest 468 539 40,000  Level Houston Center
12:26PM 32.2450 -91.5231 220° Southwest 468 539 40,000  Level Houston Center
12:27PM 32.1458 -91.6231 221° Southwest 470 541 40,000  Level Houston Center
12:28PM 32.0567 -91.7367 227° Southwest 474 545 40,000  Level Houston Center
12:30PM 31.9589 -91.8811 231° Southwest 470 541 40,000  Level Houston Center
12:31PM 31.8758 -92.0006 231° Southwest 472 543 40,000  Level Houston Center
12:32PM 31.7939 -92.1200 231° Southwest 471 542 40,000  Level Houston Center
12:33PM 31.7117 -92.2386 231° Southwest 470 541 40,000  Level Houston Center
12:34PM 31.6294 -92.3583 231° Southwest 472 543 40,000  Level Houston Center
12:35PM 31.5328 -92.4994 231° Southwest 468 539 40,000  Level Houston Center
12:36PM 31.4506 -92.6181 231° Southwest 476 548 40,000  Level Houston Center
12:37PM 31.3672 -92.7378 231° Southwest 489 563 40,000  Level Houston Center
12:38PM 31.2831 -92.8550 230° Southwest 484 557 40,000  Level Houston Center
12:39PM 31.1811 -92.9939 229° Southwest 476 548 40,000 -480 Level Houston Center
12:40PM 31.0956 -93.1139 230° Southwest 481 554 39,100 -900 Descending Houston Center
12:41PM 31.0097 -93.2350 230° Southwest 486 559 38,200 -960 Descending Houston Center
12:42PM 30.9214 -93.3586 230° Southwest 495 570 37,200 -1,860 Descending Houston Center
12:43PM 30.8317 -93.4839 230° Southwest 503 579 34,400 -3,660 Descending Houston Center
12:44PM 30.7225 -93.6333 230° Southwest 511 588 29,700 -3,780 Descending Houston Center
12:45PM 30.6356 -93.7556 230° Southwest 494 568 26,700 -2,940 Descending Houston Center
12:46PM 30.5539 -93.8736 231° Southwest 476 548 23,700 -2,820 Descending Houston Center
12:47PM 30.4711 -93.9864 230° Southwest 463 533 20,900 -2,880 Descending Houston Center
12:48PM 30.4292 -94.0456 231° Southwest 446 513 19,300 -2,760 Descending Houston Center
12:48PM 30.3917 -94.0964 229° Southwest 449 517 18,100 -2,640 Descending Houston Center
12:49PM 30.3169 -94.1986 230° Southwest 420 483 15,300 -2,640 Descending Houston Center
12:50PM 30.2439 -94.2986 230° Southwest 406 467 12,700 -2,040 Descending Houston Center
12:51PM 30.1728 -94.4119 234° Southwest 361 415 11,100 -1,260 Descending Houston Center
12:52PM 30.1347 -94.4919 241° Southwest 341 392 10,100 -1,200 Descending Houston Center
12:53PM 30.0950 -94.5761 241° Southwest 310 357 8,700 -1,500 Descending Houston Center
12:54PM 30.0472 -94.6739 241° Southwest 296 341 7,000 -1,320 Descending Houston Center
12:55PM 30.0214 -94.7575 250° West 282 325 6,000 -1,020 Descending Houston Center
12:56PM 30.0058 -94.8442 258° West 277 319 5,000 -1,200 Descending Houston Center
12:57PM 29.9911 -94.9286 259° West 273 314 3,600 -1,260 Descending Houston Center
12:58PM 29.9761 -95.0108 258° West 268 308 2,400 -720 Descending Houston Center
01:00PM 29.9764 -95.1150 270° West 209 241 2,000 -240 Descending Houston Center
01:01PM 29.9789 -95.1597 274° West 210 242 2,000 -180 Level Houston Center
01:02PM 29.9783 -95.2144 269° West 185 213 1,700 -600 Descending Houston Center
01:03PM 29.9775 -95.2617 269° West 168 193 800 -900 Descending Houston Center